MMZO/ZLO METAR and TAF weather

Enter ICAO airport designator
Station Type Date Time Source
MMZO METAR 2021/09/16 01:42 UTC NOAA

MMZO 160142Z 12010KT 10SM BKN020 33/27 A2977 RMK 8/100


Station Type Date Time Source
MMZO Decoded METAR 2021/09/16 01:42 UTC NOAA

Manzanillo International , Mexico (MMZO) 19-09N 104-34W
Sep 15, 2021 - 09:42 PM EDT / 2021.09.16 0142 UTC
Wind: from the ESE (120 degrees) at 12 MPH (10 KT):0
Visibility: 10 mile(s):0
Sky conditions: mostly cloudy
Temperature: 91 F (33 C)
Heat index: 109.0 F (42.8 C):1
Dew Point: 80 F (27 C)
Relative Humidity: 70%
Pressure (altimeter): 29.77 in. Hg (1008 hPa)
ob: MMZO 160142Z 12010KT 10SM BKN020 33/27 A2977 RMK 8/100
cycle: 1

Station Type Date Time Source
MMZO TAF 2021/09/16 06:30 UTC NOAA

TAF MMZO 160328Z 1606/1706 03005KT P6SM SCT020 BKN200
FM161600 16010KT P6SM SCT020 SCT250
FM162200 16010KT P6SM BKN020
FM170300 03005KT P6SM SCT020 BKN200

Example: see airport list